createdAt,value
2023-03-24T00:02:08.054Z,8.62
2023-03-24T00:04:46.793Z,8.54
2023-03-24T00:07:39.749Z,8.52
2023-03-24T00:10:23.820Z,8.54
2023-03-24T00:13:12.555Z,8.59
2023-03-24T00:15:58.997Z,8.61
2023-03-24T00:18:42.684Z,8.74
2023-03-24T00:21:29.450Z,8.80
2023-03-24T00:24:01.506Z,8.83
2023-03-24T00:26:46.866Z,8.96
2023-03-24T00:29:36.389Z,8.92
2023-03-24T00:32:17.716Z,8.92
2023-03-24T00:35:07.090Z,8.89
2023-03-24T00:37:53.839Z,8.85
2023-03-24T00:40:47.616Z,8.74
2023-03-24T00:43:25.759Z,8.74
2023-03-24T00:46:10.677Z,8.62
2023-03-24T00:48:58.131Z,8.64
2023-03-24T00:51:54.627Z,8.52
2023-03-24T00:54:41.470Z,8.43
2023-03-24T00:57:26.786Z,8.34
2023-03-24T01:00:20.671Z,8.24
2023-03-24T01:03:06.814Z,8.25
2023-03-24T01:05:54.596Z,8.27
2023-03-24T01:08:40.270Z,8.31
2023-03-24T01:11:25.617Z,8.41
2023-03-24T01:14:07.444Z,8.47
2023-03-24T01:16:42.423Z,8.50
2023-03-24T01:19:22.901Z,8.69
2023-03-24T01:22:09.751Z,8.68
2023-03-24T01:24:56.666Z,8.78
2023-03-24T01:27:44.869Z,8.83
2023-03-24T01:30:26.049Z,8.82
2023-03-24T01:33:15.811Z,8.78
2023-03-24T01:36:01.713Z,8.71
2023-03-24T01:38:39.876Z,8.60
2023-03-24T01:41:23.629Z,8.57
2023-03-24T01:44:30.481Z,8.60
2023-03-24T01:47:18.201Z,8.48
2023-03-24T01:50:02.724Z,8.50
2023-03-24T01:52:47.438Z,8.53
2023-03-24T01:55:32.566Z,8.56
2023-03-24T01:58:15.255Z,8.51
2023-03-24T02:01:18.266Z,8.44
2023-03-24T02:04:31.538Z,8.49
2023-03-24T02:07:36.064Z,8.47
2023-03-24T02:10:17.796Z,8.56
2023-03-24T02:12:59.164Z,8.72
2023-03-24T02:16:07.496Z,8.85
2023-03-24T02:19:07.574Z,8.71
2023-03-24T02:22:05.445Z,8.69
2023-03-24T02:25:15.138Z,8.62
2023-03-24T02:27:57.173Z,8.46
2023-03-24T02:30:58.111Z,8.39
2023-03-24T02:33:55.185Z,8.23
2023-03-24T02:37:13.692Z,8.28
2023-03-24T02:40:12.543Z,8.25
2023-03-24T02:43:13.299Z,8.28
2023-03-24T02:46:26.268Z,8.24
2023-03-24T02:49:38.226Z,8.12
2023-03-24T02:52:40.623Z,8.18
2023-03-24T02:55:26.581Z,8.11
2023-03-24T02:58:40.074Z,8.07
2023-03-24T03:01:54.413Z,8.08
2023-03-24T03:05:18.895Z,8.20
2023-03-24T03:07:58.143Z,8.25
2023-03-24T03:10:45.747Z,8.56
2023-03-24T03:13:34.193Z,8.63
2023-03-24T03:16:35.509Z,8.67
2023-03-24T03:19:14.422Z,8.71
2023-03-24T03:21:56.911Z,8.83
2023-03-24T03:24:53.287Z,8.90
2023-03-24T03:27:40.906Z,8.89
2023-03-24T03:30:31.251Z,8.65
2023-03-24T03:33:26.384Z,8.63
2023-03-24T03:36:09.552Z,8.64
2023-03-24T03:39:00.893Z,8.41
2023-03-24T03:41:42.885Z,8.34
2023-03-24T03:44:25.958Z,8.39
2023-03-24T03:47:14.351Z,8.45
2023-03-24T03:50:05.150Z,8.48
2023-03-24T03:52:48.764Z,8.55
2023-03-24T03:55:32.084Z,8.56
2023-03-24T03:58:13.270Z,8.57
2023-03-24T04:00:56.107Z,8.47
2023-03-24T04:04:20.454Z,8.54
2023-03-24T04:08:08.838Z,8.49
2023-03-24T04:11:50.257Z,8.53
2023-03-24T04:15:11.277Z,8.51
2023-03-24T04:18:32.048Z,8.48
2023-03-24T04:21:55.899Z,8.48
2023-03-24T04:24:59.395Z,8.46
2023-03-24T04:28:01.211Z,8.44
2023-03-24T04:31:01.451Z,8.41
2023-03-24T04:34:05.338Z,8.39
2023-03-24T04:37:06.348Z,8.12
2023-03-24T04:40:01.851Z,7.90
2023-03-24T04:42:52.755Z,7.71
2023-03-24T04:45:36.252Z,7.58
2023-03-24T04:48:48.357Z,7.38
2023-03-24T04:51:40.244Z,7.43
2023-03-24T04:54:40.236Z,7.44
2023-03-24T04:57:26.791Z,7.43
2023-03-24T05:00:14.626Z,7.33
2023-03-24T05:03:01.425Z,7.31
2023-03-24T05:05:37.264Z,7.32
2023-03-24T05:08:22.847Z,7.28
2023-03-24T05:11:02.307Z,7.26
2023-03-24T05:13:48.432Z,7.31
2023-03-24T05:16:31.939Z,7.39
2023-03-24T05:19:22.077Z,7.38
2023-03-24T05:22:07.733Z,7.41
2023-03-24T05:24:49.255Z,7.47
2023-03-24T05:27:24.433Z,7.43
2023-03-24T05:30:11.659Z,7.74
2023-03-24T05:32:53.257Z,7.92
2023-03-24T05:35:31.824Z,8.12
2023-03-24T05:38:16.325Z,8.22
2023-03-24T05:41:06.978Z,8.43
2023-03-24T05:44:02.038Z,8.74
2023-03-24T05:46:50.665Z,8.88
2023-03-24T05:49:32.536Z,9.22
2023-03-24T05:52:16.676Z,9.37
2023-03-24T05:55:05.751Z,9.51
2023-03-24T05:57:44.702Z,9.60
2023-03-24T06:00:23.452Z,9.68
2023-03-24T06:03:24.941Z,9.84
2023-03-24T06:06:20.596Z,10.00
2023-03-24T06:09:10.607Z,10.21
2023-03-24T06:11:51.524Z,10.41
2023-03-24T06:14:37.739Z,10.68
2023-03-24T06:17:29.357Z,10.94
2023-03-24T06:20:24.370Z,11.27
2023-03-24T06:23:38.854Z,11.59
2023-03-24T06:26:32.631Z,11.83
2023-03-24T06:29:15.490Z,12.05
2023-03-24T06:32:00.122Z,12.21
2023-03-24T06:34:46.500Z,12.27
2023-03-24T06:37:46.739Z,12.32
2023-03-24T06:40:31.994Z,12.42
2023-03-24T06:43:21.420Z,12.48
2023-03-24T06:46:03.858Z,12.47
2023-03-24T06:48:52.274Z,12.69
2023-03-24T06:51:36.046Z,12.97
2023-03-24T06:54:20.324Z,13.30
2023-03-24T06:57:03.604Z,13.79
2023-03-24T07:00:12.169Z,13.88
2023-03-24T07:03:05.157Z,13.99
2023-03-24T07:05:50.408Z,14.26
2023-03-24T07:08:38.491Z,14.58
2023-03-24T07:11:16.621Z,14.86
2023-03-24T07:14:17.512Z,15.01
2023-03-24T07:17:05.568Z,15.20
2023-03-24T07:19:56.547Z,15.68
2023-03-24T07:23:01.750Z,15.77
2023-03-24T07:26:04.037Z,15.87
2023-03-24T07:29:02.359Z,15.41
2023-03-24T07:32:06.979Z,15.77
2023-03-24T07:34:51.280Z,16.19
2023-03-24T07:37:35.026Z,16.30
2023-03-24T07:40:18.995Z,16.70
2023-03-24T07:43:11.370Z,17.24
2023-03-24T07:46:03.869Z,17.52
2023-03-24T07:48:48.587Z,17.42
2023-03-24T07:51:33.830Z,16.99
2023-03-24T07:54:38.924Z,16.76
2023-03-24T07:57:20.280Z,16.98
2023-03-24T07:59:57.194Z,17.26
2023-03-24T08:02:58.113Z,17.44
2023-03-24T08:06:07.220Z,17.57
2023-03-24T08:09:06.014Z,18.11
2023-03-24T08:11:49.233Z,18.46
2023-03-24T08:14:30.631Z,18.34
2023-03-24T08:17:04.895Z,18.57
2023-03-24T08:19:59.986Z,18.75
2023-03-24T08:22:45.745Z,18.96
2023-03-24T08:25:28.309Z,18.92
2023-03-24T08:28:08.005Z,19.04
2023-03-24T08:30:51.597Z,19.10
2023-03-24T08:33:35.455Z,19.33
2023-03-24T08:36:20.226Z,19.42
2023-03-24T08:39:07.854Z,19.65
2023-03-24T08:41:59.565Z,19.66
2023-03-24T08:44:45.750Z,19.78
2023-03-24T08:47:32.638Z,19.84
2023-03-24T08:50:35.734Z,19.78
2023-03-24T08:53:24.224Z,19.36
2023-03-24T08:56:07.306Z,19.28
2023-03-24T08:58:51.238Z,19.33
2023-03-24T09:01:37.165Z,19.33
2023-03-24T09:04:21.162Z,19.59
2023-03-24T09:07:07.306Z,19.90
2023-03-24T09:09:56.601Z,19.88
2023-03-24T09:12:42.870Z,19.89
2023-03-24T09:15:28.859Z,20.23
2023-03-24T09:18:09.555Z,20.14
2023-03-24T09:20:58.250Z,19.91
2023-03-24T09:23:33.458Z,19.45
2023-03-24T09:26:24.374Z,19.29
2023-03-24T09:29:12.114Z,19.48
2023-03-24T09:31:47.691Z,19.78
2023-03-24T09:34:33.283Z,19.70
2023-03-24T09:37:14.345Z,19.88
2023-03-24T09:40:04.691Z,19.79
2023-03-24T09:42:59.169Z,20.31
2023-03-24T09:45:46.592Z,20.17
2023-03-24T09:48:33.926Z,20.38
2023-03-24T09:51:53.989Z,20.68
2023-03-24T09:55:01.784Z,20.71
2023-03-24T09:58:03.436Z,20.98
2023-03-24T10:00:47.687Z,20.90
2023-03-24T10:03:32.915Z,20.49
2023-03-24T10:06:29.343Z,20.70
2023-03-24T10:09:29.724Z,20.90
2023-03-24T10:12:33.502Z,20.85
2023-03-24T10:18:30.837Z,21.13
2023-03-24T10:21:23.355Z,21.31
2023-03-24T10:24:15.030Z,21.44
2023-03-24T10:27:38.260Z,21.64
2023-03-24T10:30:27.289Z,21.87
2023-03-24T10:33:04.560Z,21.69
2023-03-24T10:36:19.669Z,21.48
2023-03-24T10:39:18.573Z,21.74
2023-03-24T10:42:07.160Z,21.77
2023-03-24T10:44:59.933Z,21.23
2023-03-24T10:47:41.999Z,21.37
2023-03-24T10:50:25.331Z,21.31
2023-03-24T10:53:13.546Z,21.24
2023-03-24T10:55:57.588Z,21.31
2023-03-24T10:58:44.405Z,21.52
2023-03-24T11:01:37.762Z,21.62
2023-03-24T11:04:17.325Z,22.01
2023-03-24T11:07:21.310Z,22.16
2023-03-24T11:10:34.761Z,22.35
2023-03-24T11:13:24.314Z,22.52
2023-03-24T11:16:23.138Z,22.71
2023-03-24T11:19:23.419Z,23.10
2023-03-24T11:22:11.293Z,23.10
2023-03-24T11:24:55.641Z,22.99
2023-03-24T11:27:34.557Z,22.98
2023-03-24T11:30:29.756Z,23.12
2023-03-24T11:33:18.697Z,23.16
2023-03-24T11:36:05.954Z,23.28
2023-03-24T11:38:48.823Z,22.97
2023-03-24T11:41:29.972Z,22.88
2023-03-24T11:44:33.245Z,22.56
2023-03-24T11:47:15.819Z,22.54
2023-03-24T11:50:39.334Z,22.82
2023-03-24T11:53:37.356Z,22.90
2023-03-24T11:56:50.044Z,23.17
2023-03-24T11:59:45.296Z,23.45
2023-03-24T12:02:33.150Z,23.34
2023-03-24T12:06:06.704Z,22.89
2023-03-24T12:08:58.337Z,22.96
2023-03-24T12:12:08.049Z,23.09
2023-03-24T12:15:28.495Z,23.25
2023-03-24T12:18:42.026Z,23.43
2023-03-24T12:22:09.818Z,23.47
2023-03-24T12:25:11.877Z,23.94
2023-03-24T12:28:22.788Z,23.78
2023-03-24T12:31:25.388Z,23.25
2023-03-24T12:34:34.285Z,22.81
2023-03-24T12:37:25.239Z,22.82
2023-03-24T12:40:45.238Z,22.59
2023-03-24T12:43:51.255Z,22.91
2023-03-24T12:46:59.127Z,23.23
2023-03-24T12:49:46.933Z,23.12
2023-03-24T12:52:43.868Z,23.42
2023-03-24T12:56:08.640Z,23.41
2023-03-24T12:58:47.033Z,23.88
2023-03-24T13:01:47.151Z,23.85
2023-03-24T13:04:34.661Z,24.01
2023-03-24T13:07:30.231Z,24.10
2023-03-24T13:10:20.957Z,24.23
2023-03-24T13:13:13.216Z,24.28
2023-03-24T13:16:16.001Z,24.18
2023-03-24T13:19:14.800Z,24.46
2023-03-24T13:21:57.518Z,24.00
2023-03-24T13:24:41.276Z,23.62
2023-03-24T13:27:52.830Z,23.47
2023-03-24T13:30:57.609Z,23.66
2023-03-24T13:34:00.114Z,23.53
2023-03-24T13:37:13.015Z,23.46
2023-03-24T13:39:56.101Z,23.55
2023-03-24T13:42:52.636Z,23.77
2023-03-24T13:46:43.665Z,23.78
2023-03-24T13:49:33.059Z,23.77
2023-03-24T13:52:35.283Z,23.54
2023-03-24T13:55:24.462Z,23.59
2023-03-24T13:58:10.818Z,23.50
2023-03-24T14:01:18.564Z,23.37
2023-03-24T14:04:23.988Z,23.45
2023-03-24T14:07:20.792Z,24.01
2023-03-24T14:10:29.147Z,24.42
2023-03-24T14:13:19.772Z,24.81
2023-03-24T14:16:52.698Z,25.00
2023-03-24T14:20:01.440Z,24.53
2023-03-24T14:23:04.862Z,24.03
2023-03-24T14:25:55.434Z,23.61
2023-03-24T14:28:40.273Z,23.01
2023-03-24T14:31:36.524Z,22.99
2023-03-24T14:34:40.685Z,22.69
2023-03-24T14:37:26.307Z,22.50
2023-03-24T14:40:03.680Z,22.54
2023-03-24T14:43:34.326Z,22.50
2023-03-24T14:46:32.950Z,22.23
2023-03-24T14:49:34.301Z,22.19
2023-03-24T14:52:42.395Z,22.11
2023-03-24T14:55:27.481Z,22.02
2023-03-24T14:58:26.951Z,21.87
2023-03-24T15:01:13.179Z,21.94
2023-03-24T15:04:11.961Z,21.80
2023-03-24T15:06:57.884Z,21.90
2023-03-24T15:09:49.322Z,21.85
2023-03-24T15:12:38.208Z,21.77
2023-03-24T15:15:31.904Z,21.76
2023-03-24T15:18:23.435Z,21.82
2023-03-24T15:21:19.024Z,21.85
2023-03-24T15:24:01.748Z,21.77
2023-03-24T15:26:45.229Z,21.69
2023-03-24T15:29:41.971Z,21.70
2023-03-24T15:32:40.621Z,21.54
2023-03-24T15:35:29.688Z,21.43
2023-03-24T15:38:45.545Z,21.43
2023-03-24T15:41:27.251Z,21.45
2023-03-24T15:44:13.913Z,21.45
2023-03-24T15:47:00.735Z,21.35
2023-03-24T15:49:49.416Z,21.45
2023-03-24T15:52:40.067Z,21.48
2023-03-24T15:55:42.376Z,21.67
2023-03-24T15:58:35.088Z,21.57
2023-03-24T16:01:21.009Z,21.31
2023-03-24T16:04:05.307Z,21.24
2023-03-24T16:06:49.050Z,20.87
2023-03-24T16:09:51.201Z,20.76
2023-03-24T16:12:28.391Z,20.49
2023-03-24T16:15:18.910Z,20.45
2023-03-24T16:17:59.719Z,20.35
2023-03-24T16:20:49.163Z,20.19
2023-03-24T16:23:30.108Z,20.02
2023-03-24T16:26:26.414Z,19.81
2023-03-24T16:29:19.754Z,19.66
2023-03-24T16:32:06.520Z,19.56
2023-03-24T16:34:55.154Z,19.41
2023-03-24T16:37:52.126Z,19.23
2023-03-24T16:40:41.441Z,19.05
2023-03-24T16:43:30.412Z,18.74
2023-03-24T16:46:14.831Z,18.16
2023-03-24T16:48:56.722Z,18.01
2023-03-24T16:51:35.517Z,17.75
2023-03-24T16:54:19.051Z,17.64
2023-03-24T16:57:03.624Z,17.47
2023-03-24T16:59:47.709Z,17.21
2023-03-24T17:02:34.002Z,17.04
2023-03-24T17:05:30.221Z,16.69
2023-03-24T17:08:27.414Z,16.71
2023-03-24T17:11:15.766Z,16.52
2023-03-24T17:14:05.720Z,16.53
2023-03-24T17:16:53.382Z,16.39
2023-03-24T17:19:47.842Z,16.27
2023-03-24T17:22:35.708Z,16.03
2023-03-24T17:25:30.927Z,15.98
2023-03-24T17:28:23.101Z,15.80
2023-03-24T17:31:03.369Z,15.83
2023-03-24T17:33:49.740Z,15.79
2023-03-24T17:36:30.046Z,15.63
2023-03-24T17:39:24.441Z,15.65
2023-03-24T17:42:35.015Z,15.38
2023-03-24T17:45:21.567Z,15.44
2023-03-24T17:48:10.981Z,15.30
2023-03-24T17:50:57.079Z,15.22
2023-03-24T17:53:38.415Z,15.16
2023-03-24T17:56:20.017Z,15.10
2023-03-24T17:59:03.420Z,15.11
2023-03-24T18:01:35.410Z,14.93
2023-03-24T18:04:23.772Z,14.92
2023-03-24T18:07:02.775Z,14.91
2023-03-24T18:09:51.372Z,14.88
2023-03-24T18:12:33.252Z,14.73
2023-03-24T18:15:12.271Z,14.67
2023-03-24T18:17:53.383Z,14.65
2023-03-24T18:20:39.841Z,14.58
2023-03-24T18:23:18.699Z,14.63
2023-03-24T18:26:04.442Z,14.57
2023-03-24T18:28:46.333Z,14.54
2023-03-24T18:31:33.259Z,14.22
2023-03-24T18:34:23.192Z,14.15
2023-03-24T18:37:07.678Z,14.16
2023-03-24T18:39:48.426Z,14.10
2023-03-24T18:42:47.697Z,14.00
2023-03-24T18:45:30.869Z,14.03
2023-03-24T18:48:14.338Z,14.01
2023-03-24T18:51:06.145Z,13.96
2023-03-24T18:53:42.309Z,13.75
2023-03-24T18:56:36.509Z,13.74
2023-03-24T18:59:25.342Z,13.78
2023-03-24T19:02:18.323Z,13.73
2023-03-24T19:04:57.247Z,13.68
2023-03-24T19:07:37.170Z,13.50
2023-03-24T19:10:20.952Z,13.56
2023-03-24T19:13:05.992Z,13.55
2023-03-24T19:15:58.188Z,13.72
2023-03-24T19:18:48.528Z,13.70
2023-03-24T19:21:30.204Z,13.74
2023-03-24T19:24:14.051Z,13.85
2023-03-24T19:27:00.253Z,13.96
2023-03-24T19:29:43.929Z,13.98
2023-03-24T19:32:29.665Z,14.03
2023-03-24T19:35:15.164Z,14.06
2023-03-24T19:38:05.550Z,14.10
2023-03-24T19:40:54.256Z,14.19
2023-03-24T19:43:36.880Z,14.29
2023-03-24T19:46:24.342Z,14.35
2023-03-24T19:49:06.466Z,14.41
2023-03-24T19:51:58.737Z,14.44
2023-03-24T19:54:40.664Z,14.43
2023-03-24T19:57:34.606Z,14.37
2023-03-24T20:00:27.753Z,14.33
2023-03-24T20:03:08.518Z,14.38
2023-03-24T20:06:02.033Z,14.43
2023-03-24T20:09:01.522Z,14.56
2023-03-24T20:11:49.281Z,14.58
2023-03-24T20:14:33.115Z,14.56
2023-03-24T20:17:37.713Z,14.44
2023-03-24T20:20:16.172Z,14.41
2023-03-24T20:22:53.949Z,14.47
2023-03-24T20:25:40.674Z,14.32
2023-03-24T20:28:25.099Z,14.21
2023-03-24T20:31:16.082Z,14.26
2023-03-24T20:34:02.396Z,14.40
2023-03-24T20:36:46.665Z,14.45
2023-03-24T20:39:32.439Z,14.33
2023-03-24T20:42:19.260Z,14.28
2023-03-24T20:45:04.925Z,14.28
2023-03-24T20:47:51.320Z,14.17
2023-03-24T20:50:44.406Z,14.03
2023-03-24T20:53:40.703Z,13.95
2023-03-24T20:56:20.965Z,13.86
2023-03-24T20:59:06.577Z,13.82
2023-03-24T21:01:53.495Z,13.85
2023-03-24T21:04:28.758Z,13.76
2023-03-24T21:07:12.495Z,14.01
2023-03-24T21:09:55.702Z,14.07
2023-03-24T21:12:35.279Z,14.30
2023-03-24T21:15:43.776Z,14.54
2023-03-24T21:18:44.042Z,14.80
2023-03-24T21:21:33.226Z,14.86
2023-03-24T21:24:26.356Z,15.00
2023-03-24T21:27:07.219Z,14.97
2023-03-24T21:29:53.785Z,15.08
2023-03-24T21:32:32.048Z,15.05
2023-03-24T21:35:14.181Z,14.87
2023-03-24T21:37:59.225Z,14.85
2023-03-24T21:40:48.600Z,14.90
2023-03-24T21:43:34.978Z,14.83
2023-03-24T21:46:26.408Z,14.81
2023-03-24T21:49:11.175Z,14.82
2023-03-24T21:52:00.755Z,14.86
2023-03-24T21:54:41.536Z,14.84
2023-03-24T21:57:25.518Z,14.89
2023-03-24T22:00:17.923Z,15.08
2023-03-24T22:02:54.284Z,15.09
2023-03-24T22:05:40.354Z,15.23
2023-03-24T22:08:31.282Z,15.20
2023-03-24T22:11:16.557Z,15.26
2023-03-24T22:13:52.297Z,15.23
2023-03-24T22:16:33.113Z,15.28
2023-03-24T22:19:14.587Z,15.33
2023-03-24T22:22:01.639Z,15.31
2023-03-24T22:24:42.339Z,15.36
2023-03-24T22:27:23.524Z,15.34
2023-03-24T22:30:09.785Z,15.48
2023-03-24T22:32:53.568Z,15.43
2023-03-24T22:35:36.693Z,15.40
2023-03-24T22:38:19.385Z,15.44
2023-03-24T22:41:02.525Z,15.42
2023-03-24T22:43:41.984Z,15.35
2023-03-24T22:46:22.362Z,15.37
2023-03-24T22:49:05.185Z,15.39
2023-03-24T22:51:44.427Z,15.38
2023-03-24T22:54:32.975Z,15.33
2023-03-24T22:57:13.307Z,15.35
2023-03-24T22:59:59.900Z,15.19
2023-03-24T23:02:52.030Z,15.19
2023-03-24T23:05:33.288Z,15.21
2023-03-24T23:08:11.226Z,15.17
2023-03-24T23:10:54.934Z,15.13
2023-03-24T23:13:39.204Z,15.19
2023-03-24T23:16:25.494Z,15.11
2023-03-24T23:19:03.687Z,14.96
2023-03-24T23:21:43.924Z,14.87
2023-03-24T23:24:30.439Z,14.77
2023-03-24T23:27:10.741Z,14.66
2023-03-24T23:29:54.359Z,14.66
2023-03-24T23:32:35.636Z,14.67
2023-03-24T23:35:26.330Z,14.62
2023-03-24T23:38:20.046Z,14.57
2023-03-24T23:41:00.962Z,14.47
2023-03-24T23:43:50.175Z,14.47
2023-03-24T23:46:26.584Z,14.35
2023-03-24T23:49:34.700Z,14.27
2023-03-24T23:52:26.075Z,14.26
2023-03-24T23:55:07.470Z,14.37
2023-03-24T23:57:50.776Z,14.21
